Time;durP1;ratioP1;P1;durP2;ratioP2;P2;SDS_P1;SDS_P2;PMS_P1;PMS_P2;Temp;Humidity;BMP_temperature;BMP_pressure;BME280_temperature;BME280_humidity;BME280_pressure;Samples;Min_cycle;Max_cycle;Signal;HPM_P1;HPM_P2
2023/06/06 00:01:12;;;;;;;10.13;5.30;;;;;;;12.37;100.00;102211.59;7388940;19;20446;-38
2023/06/06 00:03:42;;;;;;;9.03;5.27;;;;;;;12.25;100.00;102231.63;7364755;19;20442;-41
2023/06/06 00:06:12;;;;;;;11.37;5.67;;;;;;;12.22;100.00;102250.44;7389390;19;20377;-38
2023/06/06 00:08:44;;;;;;;12.17;5.30;;;;;;;12.25;100.00;102258.38;7365329;19;20408;-40
2023/06/06 00:11:14;;;;;;;10.20;5.20;;;;;;;12.27;100.00;102261.94;7390194;19;20445;-38
2023/06/06 00:13:43;;;;;;;11.47;5.50;;;;;;;12.30;100.00;102266.38;7366064;19;20430;-41
2023/06/06 00:16:14;;;;;;;12.37;5.20;;;;;;;12.28;100.00;102273.19;7388803;19;20396;-42
2023/06/06 00:18:45;;;;;;;8.97;5.17;;;;;;;12.23;100.00;102275.50;7363592;19;20401;-42
2023/06/06 00:21:14;;;;;;;10.63;5.20;;;;;;;12.23;100.00;102274.59;7388131;19;20418;-41
2023/06/06 00:23:47;;;;;;;10.80;5.10;;;;;;;12.25;100.00;102297.19;7364928;19;20445;-42
2023/06/06 00:26:17;;;;;;;11.77;5.10;;;;;;;12.22;100.00;102298.69;7389467;19;20392;-40
2023/06/06 00:28:47;;;;;;;11.00;5.33;;;;;;;12.23;100.00;102319.50;7368470;19;20428;-41
2023/06/06 00:31:17;;;;;;;7.47;4.37;;;;;;;12.20;100.00;102316.72;7388103;19;20449;-42
2023/06/06 00:33:46;;;;;;;10.30;5.10;;;;;;;12.13;100.00;102319.72;7362714;19;20465;-40
2023/06/06 00:36:16;;;;;;;9.50;5.43;;;;;;;12.08;100.00;102334.97;7390337;19;20385;-36
2023/06/06 00:38:48;;;;;;;11.33;5.83;;;;;;;12.00;100.00;102342.25;7368252;19;20759;-41
2023/06/06 00:41:18;;;;;;;9.33;5.03;;;;;;;11.95;100.00;102366.91;7395884;19;20431;-37
2023/06/06 00:43:47;;;;;;;8.20;5.03;;;;;;;11.94;100.00;102370.31;7372863;19;20511;-42
2023/06/06 00:46:18;;;;;;;13.40;5.50;;;;;;;12.09;100.00;102362.63;7395221;19;20400;-40
2023/06/06 00:48:48;;;;;;;10.30;5.30;;;;;;;12.09;100.00;102372.06;7371500;19;20425;-39
2023/06/06 00:51:18;;;;;;;15.90;5.93;;;;;;;11.98;100.00;102372.31;7393046;19;20516;-37
2023/06/06 00:53:51;;;;;;;10.93;5.63;;;;;;;11.92;100.00;102371.00;7371651;19;20427;-39
2023/06/06 00:56:22;;;;;;;15.23;6.50;;;;;;;11.88;100.00;102364.75;7396574;19;20396;-42
2023/06/06 00:58:51;;;;;;;11.40;5.70;;;;;;;11.83;100.00;102341.22;7371913;19;21171;-41
2023/06/06 01:01:23;;;;;;;14.10;6.37;;;;;;;11.84;100.00;102332.66;7394797;19;20498;-42
2023/06/06 01:03:56;;;;;;;13.00;6.30;;;;;;;11.87;100.00;102311.25;7370932;19;20411;-41
2023/06/06 01:06:26;;;;;;;12.07;6.43;;;;;;;11.84;100.00;102305.91;7394445;19;20391;-41
2023/06/06 01:08:58;;;;;;;11.90;7.13;;;;;;;11.81;100.00;102290.19;7370557;19;20398;-43
2023/06/06 01:11:31;;;;;;;12.80;6.13;;;;;;;11.83;100.00;102275.66;7393692;19;20443;-38
2023/06/06 01:14:09;;;;;;;16.07;6.00;;;;;;;11.94;100.00;102266.84;7370462;19;20422;-40
2023/06/06 01:16:39;;;;;;;14.30;6.83;;;;;;;12.06;100.00;102252.91;7394239;19;20449;-41
2023/06/06 01:19:10;;;;;;;15.50;6.97;;;;;;;11.91;100.00;102268.38;7370392;19;20395;-38
2023/06/06 01:21:44;;;;;;;11.77;6.33;;;;;;;11.87;100.00;102270.78;7394096;19;20450;-41
2023/06/06 01:24:14;;;;;;;15.03;6.97;;;;;;;11.87;100.00;102262.13;7371915;19;21008;-39
2023/06/06 01:26:44;;;;;;;10.30;6.37;;;;;;;11.81;100.00;102275.56;7396149;19;20748;-42
2023/06/06 01:29:13;;;;;;;12.80;6.20;;;;;;;11.78;100.00;102274.50;7370627;19;20446;-42
2023/06/06 01:31:45;;;;;;;12.83;6.60;;;;;;;11.79;100.00;102277.16;7392888;19;20434;-42
2023/06/06 01:34:22;;;;;;;12.07;6.53;;;;;;;11.72;100.00;102281.06;7370109;19;20483;-40
2023/06/06 01:36:59;;;;;;;12.33;6.17;;;;;;;11.68;100.00;102283.34;7393599;19;20402;-40
2023/06/06 01:39:29;;;;;;;15.90;6.07;;;;;;;11.73;100.00;102282.84;7370982;19;20520;-37
2023/06/06 01:42:00;;;;;;;10.10;5.73;;;;;;;11.70;100.00;102276.59;7393861;19;20440;-41
2023/06/06 01:44:31;;;;;;;8.73;6.20;;;;;;;11.70;100.00;102281.78;7369765;19;20799;-40
2023/06/06 01:47:02;;;;;;;12.83;6.30;;;;;;;11.65;100.00;102284.09;7396426;19;20407;-43
2023/06/06 01:49:35;;;;;;;11.40;6.50;;;;;;;11.56;100.00;102293.84;7370156;19;20407;-43
2023/06/06 01:52:08;;;;;;;13.70;6.40;;;;;;;11.65;100.00;102294.44;7393373;19;20439;-40
2023/06/06 01:54:40;;;;;;;11.20;6.57;;;;;;;11.69;100.00;102296.38;7368370;19;20840;-38
2023/06/06 01:57:10;;;;;;;16.97;6.30;;;;;;;11.54;100.00;102303.19;7393460;19;20403;-39
2023/06/06 01:59:40;;;;;;;11.70;6.87;;;;;;;11.46;100.00;102303.63;7369508;19;20403;-39
2023/06/06 02:02:10;;;;;;;11.73;6.27;;;;;;;11.43;100.00;102300.81;7393314;19;20430;-39
2023/06/06 02:04:41;;;;;;;11.33;6.90;;;;;;;11.44;100.00;102299.16;7369591;19;20407;-41
2023/06/06 02:07:15;;;;;;;10.07;5.90;;;;;;;11.39;100.00;102288.50;7393820;19;20412;-37
2023/06/06 02:09:45;;;;;;;14.17;7.10;;;;;;;11.32;100.00;102288.91;7373442;19;20465;-36
2023/06/06 02:12:14;;;;;;;17.40;6.90;;;;;;;11.32;100.00;102294.09;7392620;19;20494;-40
2023/06/06 02:14:44;;;;;;;12.33;6.33;;;;;;;11.27;100.00;102292.94;7368504;19;20430;-38
2023/06/06 02:17:14;;;;;;;13.97;6.67;;;;;;;11.17;100.00;102284.56;7394236;19;20395;-41
2023/06/06 02:19:44;;;;;;;9.67;6.00;;;;;;;11.15;100.00;102274.94;7370668;19;20489;-39
2023/06/06 02:22:16;;;;;;;11.07;6.00;;;;;;;11.07;100.00;102262.44;7392528;19;20425;-39
2023/06/06 02:24:46;;;;;;;14.37;7.10;;;;;;;11.08;100.00;102243.53;7368580;19;20411;-37
2023/06/06 02:27:16;;;;;;;13.60;6.90;;;;;;;11.07;100.00;102230.53;7392657;19;21013;-42
2023/06/06 02:29:45;;;;;;;13.23;6.13;;;;;;;11.00;100.00;102218.03;7369091;19;20439;-36
2023/06/06 02:32:15;;;;;;;12.50;6.80;;;;;;;11.00;100.00;102197.38;7394565;19;20434;-39
2023/06/06 02:34:44;;;;;;;12.70;6.10;;;;;;;10.97;100.00;102177.41;7367932;19;20492;-41
2023/06/06 02:37:17;;;;;;;12.03;7.20;;;;;;;10.99;100.00;102156.84;7392661;19;20770;-40
2023/06/06 02:39:46;;;;;;;18.93;7.27;;;;;;;10.97;100.00;102133.50;7365675;19;20482;-41
2023/06/06 02:42:16;;;;;;;12.63;6.87;;;;;;;10.93;100.00;102122.09;7392142;19;20505;-40
2023/06/06 02:44:46;;;;;;;13.63;7.33;;;;;;;10.85;100.00;102102.66;7367861;19;20517;-40
2023/06/06 02:47:16;;;;;;;11.67;6.93;;;;;;;10.89;100.00;102086.56;7392351;19;20396;-39
2023/06/06 02:49:46;;;;;;;15.63;7.10;;;;;;;10.86;100.00;102062.25;7368270;19;20936;-40
2023/06/06 02:52:18;;;;;;;17.33;7.23;;;;;;;10.82;100.00;102053.41;7391408;19;20508;-39
2023/06/06 02:54:48;;;;;;;12.03;7.70;;;;;;;10.79;100.00;102038.66;7367943;19;20434;-43
2023/06/06 02:57:17;;;;;;;14.90;7.60;;;;;;;10.81;100.00;102020.63;7392068;19;20475;-38
2023/06/06 02:59:47;;;;;;;17.50;7.63;;;;;;;10.78;100.00;102010.13;7367034;19;20998;-38
2023/06/06 03:02:18;;;;;;;11.23;7.03;;;;;;;10.74;100.00;102009.06;7390766;19;20445;-41
2023/06/06 03:04:47;;;;;;;16.17;7.90;;;;;;;10.73;100.00;101991.81;7367682;19;20485;-40
2023/06/06 03:07:20;;;;;;;13.47;7.30;;;;;;;10.73;100.00;101985.72;7393766;19;20468;-39
2023/06/06 03:09:49;;;;;;;12.47;7.53;;;;;;;10.77;100.00;101979.97;7364981;19;20434;-35
2023/06/06 03:12:19;;;;;;;14.47;7.80;;;;;;;10.92;100.00;101970.53;7391279;19;20429;-42
2023/06/06 03:14:49;;;;;;;13.07;7.20;;;;;;;10.87;100.00;101968.50;7366842;19;20422;-41
2023/06/06 03:17:26;;;;;;;11.93;6.70;;;;;;;10.74;100.00;101969.44;7391581;19;20393;-41
2023/06/06 03:19:56;;;;;;;16.10;7.70;;;;;;;10.63;100.00;101974.88;7367524;19;20412;-37
2023/06/06 03:22:28;;;;;;;16.90;8.80;;;;;;;10.63;100.00;101964.53;7392854;19;20517;-40
2023/06/06 03:24:58;;;;;;;18.77;8.60;;;;;;;10.59;100.00;101974.56;7365487;19;20505;-40
2023/06/06 03:27:27;;;;;;;16.93;8.57;;;;;;;10.79;100.00;101974.09;7391127;19;20424;-44
2023/06/06 03:29:57;;;;;;;18.00;8.90;;;;;;;10.69;100.00;101957.94;7371582;19;20433;-38
2023/06/06 03:32:27;;;;;;;14.43;7.13;;;;;;;10.58;100.00;101965.94;7391497;19;20449;-37
2023/06/06 03:34:57;;;;;;;18.37;9.33;;;;;;;10.55;100.00;101952.84;7367215;19;20413;-40
2023/06/06 03:37:29;;;;;;;23.13;8.93;;;;;;;10.49;100.00;101945.63;7392719;19;20397;-42
2023/06/06 03:39:59;;;;;;;15.63;9.07;;;;;;;10.59;100.00;101939.34;7365332;19;20787;-38
2023/06/06 03:42:29;;;;;;;13.73;7.77;;;;;;;10.49;100.00;101929.22;7390322;19;20430;-39
2023/06/06 03:44:59;;;;;;;19.23;9.10;;;;;;;10.58;100.00;101922.06;7370476;19;20452;-40
2023/06/06 03:47:28;;;;;;;16.80;8.20;;;;;;;10.57;100.00;101911.66;7390243;19;20409;-37
2023/06/06 03:49:58;;;;;;;18.83;9.13;;;;;;;10.52;100.00;101903.63;7366322;19;20420;-40
2023/06/06 03:52:30;;;;;;;14.37;8.90;;;;;;;10.55;100.00;101897.78;7390459;19;20429;-41
2023/06/06 03:55:00;;;;;;;16.40;8.23;;;;;;;10.55;100.00;101890.91;7367942;19;20425;-38
2023/06/06 03:57:29;;;;;;;20.93;8.30;;;;;;;10.59;100.00;101890.28;7390307;19;20950;-41
2023/06/06 04:00:00;;;;;;;20.00;8.53;;;;;;;10.66;100.00;101881.22;7365592;19;20513;-40
2023/06/06 04:02:31;;;;;;;16.80;8.60;;;;;;;10.65;100.00;101890.66;7390148;19;20431;-38
2023/06/06 04:05:02;;;;;;;16.27;8.90;;;;;;;10.64;100.00;101887.97;7373185;19;20514;-43
2023/06/06 04:07:35;;;;;;;15.47;9.30;;;;;;;10.67;100.00;101889.06;7389692;19;20743;-42
2023/06/06 04:10:06;;;;;;;20.67;9.57;;;;;;;10.69;100.00;101870.19;7367711;19;20429;-39
2023/06/06 04:12:36;;;;;;;17.83;9.10;;;;;;;10.76;100.00;101874.91;7377282;19;20514;-42
2023/06/06 04:15:06;;;;;;;13.47;7.90;;;;;;;10.86;100.00;101868.63;7396182;19;20382;-39
2023/06/06 04:17:37;;;;;;;16.40;9.20;;;;;;;11.01;100.00;101879.81;7379635;19;20394;-39
2023/06/06 04:20:08;;;;;;;15.67;8.70;;;;;;;11.37;100.00;101868.91;7394924;19;20947;-39
2023/06/06 04:22:43;;;;;;;270.90;137.03;;;;;;;11.62;100.00;101867.69;7372278;19;21100;-39
2023/06/06 04:25:15;;;;;;;46.23;24.83;;;;;;;11.68;100.00;101865.44;7394125;19;20408;-38
2023/06/06 04:27:45;;;;;;;33.07;16.87;;;;;;;11.85;100.00;101873.25;7376413;19;20403;-37
2023/06/06 04:30:22;;;;;;;35.93;18.73;;;;;;;11.95;100.00;101885.84;7393731;19;20397;-40
2023/06/06 04:32:52;;;;;;;42.97;21.43;;;;;;;12.07;100.00;101901.19;7372778;19;20397;-40
2023/06/06 04:35:22;;;;;;;29.23;16.50;;;;;;;11.91;100.00;101920.13;7394867;19;20389;-41
2023/06/06 04:37:57;;;;;;;42.60;25.70;;;;;;;12.19;100.00;101932.00;7371337;19;20403;-40
2023/06/06 04:40:32;;;;;;;23.37;11.33;;;;;;;12.21;100.00;101950.19;7397828;19;20401;-38
2023/06/06 04:43:23;;;;;;;49.80;27.90;;;;;;;12.04;100.00;101978.63;7373570;19;20430;-41
2023/06/06 04:45:53;;;;;;;43.73;26.00;;;;;;;12.13;100.00;101997.25;7397615;19;21059;-42
2023/06/06 04:48:25;;;;;;;26.20;15.07;;;;;;;12.19;100.00;102014.78;7370799;19;20422;-42
2023/06/06 04:50:56;;;;;;;32.87;20.33;;;;;;;12.25;100.00;102051.34;7393255;19;20805;-40
2023/06/06 04:53:28;;;;;;;40.93;22.90;;;;;;;12.28;100.00;102073.94;7370983;19;20395;-39
2023/06/06 04:55:58;;;;;;;20.17;12.03;;;;;;;12.27;100.00;102111.84;7394017;19;20838;-39
2023/06/06 04:58:28;;;;;;;24.57;14.67;;;;;;;12.55;100.00;102133.19;7371454;19;20410;-43
2023/06/06 05:00:59;;;;;;;45.27;25.40;;;;;;;12.67;100.00;102192.56;7393548;19;20977;-40
2023/06/06 05:03:29;;;;;;;23.97;12.80;;;;;;;12.68;100.00;102243.53;7372514;19;20406;-40
2023/06/06 05:06:02;;;;;;;64.20;33.80;;;;;;;12.91;100.00;102273.31;7393744;19;20402;-40
2023/06/06 05:08:39;;;;;;;20.90;8.83;;;;;;;12.90;100.00;102323.34;7369098;19;20392;-39
2023/06/06 05:11:10;;;;;;;18.20;8.77;;;;;;;12.77;100.00;102345.03;7392664;19;20426;-41
2023/06/06 05:13:40;;;;;;;23.87;12.77;;;;;;;12.87;100.00;102362.00;7369489;19;20405;-43
2023/06/06 05:16:10;;;;;;;14.40;8.20;;;;;;;12.87;100.00;102374.09;7394418;19;20394;-42
2023/06/06 05:18:39;;;;;;;20.93;10.73;;;;;;;12.91;100.00;102387.31;7371566;19;20463;-40
2023/06/06 05:21:09;;;;;;;17.10;8.90;;;;;;;13.07;100.00;102395.94;7396389;19;20441;-39
2023/06/06 05:23:42;;;;;;;19.80;10.10;;;;;;;13.05;100.00;102405.34;7368246;19;20810;-39
2023/06/06 05:26:11;;;;;;;17.50;9.40;;;;;;;13.35;100.00;102411.38;7393782;19;20409;-38
2023/06/06 05:28:41;;;;;;;17.50;9.77;;;;;;;13.30;100.00;102427.50;7370590;19;20434;-40
2023/06/06 05:31:12;;;;;;;18.20;9.27;;;;;;;13.40;100.00;102436.69;7393528;19;20446;-40
2023/06/06 05:33:42;;;;;;;21.37;10.47;;;;;;;13.33;100.00;102436.31;7369752;19;20992;-40
2023/06/06 05:36:12;;;;;;;40.23;24.03;;;;;;;13.45;100.00;102427.47;7393519;19;20469;-42
2023/06/06 05:38:44;;;;;;;17.20;9.23;;;;;;;13.52;100.00;102437.41;7368058;19;20479;-43
2023/06/06 05:41:14;;;;;;;19.93;11.43;;;;;;;13.41;100.00;102436.78;7391162;19;20415;-42
2023/06/06 05:43:47;;;;;;;26.07;12.93;;;;;;;13.63;100.00;102443.19;7370958;19;20446;-42
2023/06/06 05:46:17;;;;;;;28.00;13.53;;;;;;;13.70;100.00;102444.44;7397794;19;20810;-40
2023/06/06 05:48:47;;;;;;;20.30;7.17;;;;;;;13.69;100.00;102438.34;7372849;19;20433;-40
2023/06/06 05:51:17;;;;;;;12.90;6.60;;;;;;;13.70;100.00;102445.31;7395233;19;20828;-42
2023/06/06 05:53:49;;;;;;;24.47;11.10;;;;;;;13.74;100.00;102446.41;7372396;19;20423;-41
2023/06/06 05:56:21;;;;;;;18.33;9.03;;;;;;;13.94;100.00;102438.84;7395880;19;20432;-39
2023/06/06 05:58:52;;;;;;;25.13;7.83;;;;;;;14.04;100.00;102436.81;7372817;19;20808;-39
2023/06/06 06:01:24;;;;;;;13.57;6.93;;;;;;;14.13;100.00;102445.91;7394925;19;20439;-38
2023/06/06 06:03:54;;;;;;;22.93;8.10;;;;;;;14.13;100.00;102445.91;7371820;19;20977;-41
2023/06/06 06:06:23;;;;;;;21.37;8.63;;;;;;;14.14;100.00;102448.59;7395387;19;20763;-40
2023/06/06 06:08:57;;;;;;;22.43;7.77;;;;;;;14.25;100.00;102450.88;7372998;19;20460;-41
2023/06/06 06:11:27;;;;;;;14.37;7.50;;;;;;;14.47;100.00;102452.00;7390527;19;20798;-41
2023/06/06 06:13:56;;;;;;;22.83;6.90;;;;;;;14.51;100.00;102456.56;7396122;19;20494;-40
2023/06/06 06:16:26;;;;;;;11.40;6.00;;;;;;;14.56;100.00;102452.50;7395096;19;20422;-41
2023/06/06 06:18:56;;;;;;;9.03;5.27;;;;;;;14.65;100.00;102447.78;7374500;19;20496;-40
2023/06/06 06:21:25;;;;;;;16.83;6.80;;;;;;;14.72;100.00;102423.88;7394275;19;20466;-42
2023/06/06 06:23:57;;;;;;;17.93;8.10;;;;;;;14.83;100.00;102395.88;7374743;19;20453;-41
2023/06/06 06:26:27;;;;;;;12.93;6.40;;;;;;;14.90;100.00;102373.72;7395773;19;20411;-36
2023/06/06 06:28:58;;;;;;;16.33;6.33;;;;;;;14.97;100.00;102331.59;7374965;19;20534;-41
2023/06/06 06:31:27;;;;;;;13.20;5.33;;;;;;;15.18;100.00;102288.38;7394278;19;20527;-42
2023/06/06 06:33:57;;;;;;;13.90;6.63;;;;;;;15.42;100.00;102256.56;7374567;19;20532;-37
2023/06/06 06:36:27;;;;;;;14.27;6.90;;;;;;;15.49;100.00;102251.69;7392537;19;20410;-40
2023/06/06 06:38:59;;;;;;;13.27;5.70;;;;;;;15.57;100.00;102266.72;7372531;19;20455;-39
2023/06/06 06:41:29;;;;;;;23.93;8.50;;;;;;;15.58;100.00;102230.38;7394475;19;20468;-40
2023/06/06 06:43:59;;;;;;;16.00;7.70;;;;;;;15.62;100.00;102162.09;7373715;19;20783;-40
2023/06/06 06:46:28;;;;;;;27.87;9.87;;;;;;;15.72;100.00;102193.69;7396972;19;20484;-40
2023/06/06 06:48:58;;;;;;;12.37;5.77;;;;;;;15.90;100.00;102178.00;7375850;19;20452;-40
2023/06/06 06:51:29;;;;;;;10.57;5.27;;;;;;;15.86;100.00;102087.59;7395047;19;20444;-36
2023/06/06 06:54:02;;;;;;;28.93;15.80;;;;;;;15.88;100.00;101946.31;7375702;19;20456;-38
2023/06/06 06:56:32;;;;;;;35.50;16.93;;;;;;;16.01;100.00;101879.16;7373096;19;20399;-40
2023/06/06 06:59:03;;;;;;;9.93;5.00;;;;;;;16.17;100.00;101838.94;7395318;19;20481;-39
2023/06/06 07:01:32;;;;;;;15.87;5.43;;;;;;;16.21;100.00;101786.16;7372334;19;20449;-42
2023/06/06 07:04:04;;;;;;;12.33;4.07;;;;;;;16.29;100.00;101774.28;7397200;19;20406;-43
2023/06/06 07:06:34;;;;;;;9.73;5.07;;;;;;;16.34;100.00;101737.97;7365181;19;20425;-41
2023/06/06 07:09:06;;;;;;;33.43;16.50;;;;;;;16.42;100.00;101589.81;7394760;19;20807;-41
2023/06/06 07:11:36;;;;;;;31.03;14.60;;;;;;;16.43;100.00;101484.78;7372304;19;20461;-37
2023/06/06 07:14:06;;;;;;;7.20;4.30;;;;;;;16.45;100.00;101390.25;7395278;19;20384;-38
2023/06/06 07:16:35;;;;;;;9.97;4.10;;;;;;;16.59;100.00;101421.88;7371644;19;20864;-40
2023/06/06 07:19:05;;;;;;;7.10;4.37;;;;;;;16.75;100.00;101437.91;7393968;19;20418;-39
2023/06/06 07:21:34;;;;;;;8.33;4.13;;;;;;;16.78;100.00;101447.53;7369034;19;20860;-40
2023/06/06 07:24:08;;;;;;;6.50;3.40;;;;;;;16.86;100.00;101405.22;7392926;19;20415;-38
2023/06/06 07:26:37;;;;;;;13.83;5.80;;;;;;;16.97;100.00;101321.22;7371896;19;20444;-38
2023/06/06 07:29:07;;;;;;;6.70;3.50;;;;;;;17.07;100.00;101255.44;7395056;19;20944;-41
2023/06/06 07:31:36;;;;;;;9.03;3.50;;;;;;;17.16;100.00;101226.09;7369216;19;20809;-38
2023/06/06 07:34:06;;;;;;;8.23;3.90;;;;;;;17.14;100.00;101233.88;7394680;19;20407;-40
2023/06/06 07:36:36;;;;;;;17.47;9.60;;;;;;;17.21;100.00;101219.25;7369383;19;20414;-38
2023/06/06 07:39:08;;;;;;;10.50;3.67;;;;;;;17.33;100.00;101186.47;7393251;19;20888;-39
2023/06/06 07:41:38;;;;;;;6.60;3.33;;;;;;;17.44;100.00;101158.00;7368521;19;20513;-37
2023/06/06 07:44:09;;;;;;;10.10;4.30;;;;;;;17.58;100.00;101179.16;7391367;19;20929;-39
2023/06/06 07:46:38;;;;;;;7.13;3.93;;;;;;;17.68;100.00;101168.91;7367918;19;20467;-41
2023/06/06 07:49:08;;;;;;;8.40;3.30;;;;;;;17.72;100.00;101187.22;7391315;19;20415;-37
2023/06/06 07:51:38;;;;;;;9.43;4.50;;;;;;;17.75;100.00;101159.44;7368602;19;20787;-41
2023/06/06 07:54:10;;;;;;;11.87;4.20;;;;;;;17.85;100.00;101176.19;7393187;19;20426;-37
2023/06/06 07:56:40;;;;;;;8.70;3.47;;;;;;;18.07;100.00;101176.59;7371444;19;20416;-41
2023/06/06 07:59:10;;;;;;;9.77;5.63;;;;;;;18.10;100.00;101174.03;7392988;19;20408;-37
2023/06/06 08:01:40;;;;;;;8.70;3.50;;;;;;;18.16;100.00;101171.50;7368058;19;20451;-37
2023/06/06 08:04:10;;;;;;;9.77;3.60;;;;;;;18.27;100.00;101161.28;7392353;19;20416;-43
2023/06/06 08:06:42;;;;;;;10.53;3.87;;;;;;;18.30;100.00;101174.34;7368490;19;20420;-38
2023/06/06 08:09:14;;;;;;;7.00;3.27;;;;;;;18.43;100.00;101195.47;7392436;19;20500;-37
2023/06/06 08:11:44;;;;;;;11.53;3.80;;;;;;;18.48;100.00;101197.31;7367111;19;20443;-39
2023/06/06 08:14:13;;;;;;;7.67;3.43;;;;;;;18.56;100.00;101223.53;7393863;19;20415;-37
2023/06/06 08:16:43;;;;;;;12.60;4.17;;;;;;;18.64;100.00;101236.72;7368179;19;20510;-41
2023/06/06 08:19:13;;;;;;;7.20;3.50;;;;;;;18.64;100.00;101255.03;7391775;19;20781;-37
2023/06/06 08:21:43;;;;;;;7.73;4.00;;;;;;;18.72;100.00;101245.56;7368917;19;20480;-42
2023/06/06 08:24:15;;;;;;;9.97;3.07;;;;;;;18.85;100.00;101254.47;7391820;19;20407;-43
2023/06/06 08:26:45;;;;;;;9.93;4.07;;;;;;;18.95;100.00;101258.13;7366215;19;20756;-40
2023/06/06 08:29:14;;;;;;;8.70;3.63;;;;;;;18.96;100.00;101314.78;7394096;19;20433;-38
2023/06/06 08:31:44;;;;;;;7.20;3.17;;;;;;;19.08;100.00;101321.09;7366705;19;20456;-38
2023/06/06 08:34:14;;;;;;;6.70;3.47;;;;;;;19.13;100.00;101345.56;7390496;19;20423;-38
2023/06/06 08:36:44;;;;;;;10.33;3.40;;;;;;;19.23;100.00;101391.06;7369442;19;20817;-40
2023/06/06 08:39:18;;;;;;;7.60;3.60;;;;;;;19.35;100.00;101353.72;7391541;19;20404;-35
2023/06/06 08:41:52;;;;;;;6.97;3.10;;;;;;;19.37;100.00;101425.25;7366936;19;20462;-36
2023/06/06 08:44:23;;;;;;;8.30;3.33;;;;;;;19.47;100.00;101495.22;7389519;19;20943;-38
2023/06/06 08:46:54;;;;;;;12.80;3.00;;;;;;;19.53;100.00;101497.94;7369592;19;20421;-37
2023/06/06 08:49:23;;;;;;;7.10;3.17;;;;;;;19.62;100.00;101501.53;7389943;19;20839;-38
2023/06/06 08:51:53;;;;;;;7.63;3.30;;;;;;;19.70;100.00;101541.81;7365933;19;21105;-38
2023/06/06 08:54:26;;;;;;;10.70;3.10;;;;;;;19.78;100.00;101600.41;7389585;19;20498;-40
2023/06/06 08:56:57;;;;;;;6.80;3.00;;;;;;;19.89;100.00;101584.88;7366355;19;20499;-41
2023/06/06 08:59:28;;;;;;;6.90;3.53;;;;;;;20.01;100.00;101558.06;7393989;19;20906;-37
2023/06/06 09:01:58;;;;;;;10.87;3.90;;;;;;;20.04;100.00;101555.47;7375585;19;20811;-38
2023/06/06 09:04:28;;;;;;;9.10;3.57;;;;;;;20.15;100.00;101581.81;7396671;19;20407;-38
2023/06/06 09:07:00;;;;;;;7.93;3.87;;;;;;;20.23;100.00;101626.47;7374097;19;20411;-39
2023/06/06 09:09:33;;;;;;;6.80;3.17;;;;;;;20.31;100.00;101655.41;7396763;19;20407;-41
2023/06/06 09:12:03;;;;;;;7.33;3.33;;;;;;;20.37;100.00;101640.66;7372495;19;20470;-42
2023/06/06 09:14:32;;;;;;;8.37;2.90;;;;;;;20.44;100.00;101675.72;7399454;19;20400;-44
2023/06/06 09:17:02;;;;;;;248.87;145.37;;;;;;;20.41;100.00;101674.78;7372426;19;20864;-40
2023/06/06 09:19:33;;;;;;;11.93;5.10;;;;;;;20.59;100.00;101646.22;7397320;19;20408;-38
2023/06/06 09:22:07;;;;;;;72.80;45.60;;;;;;;20.83;100.00;101608.09;7373923;19;20399;-43
2023/06/06 09:24:44;;;;;;;8.00;3.60;;;;;;;20.80;100.00;101664.88;7398311;19;20407;-42
2023/06/06 09:27:30;;;;;;;7.63;4.60;;;;;;;20.98;100.00;101622.28;7374596;19;20403;-39
2023/06/06 09:30:00;;;;;;;13.27;6.70;;;;;;;21.09;100.00;101618.06;7395951;19;20434;-41
2023/06/06 09:38:49;;;;;;;13.10;3.80;;;;;;;21.21;100.00;101661.91;7381589;19;20598;-35
2023/06/06 09:41:18;;;;;;;11.80;4.80;;;;;;;21.26;100.00;101643.56;7423814;19;20492;-34
2023/06/06 09:43:48;;;;;;;7.63;4.37;;;;;;;21.39;100.00;101711.09;7401909;19;20477;-35
2023/06/06 09:46:17;;;;;;;9.50;4.60;;;;;;;21.52;100.00;101712.13;7419399;19;20430;-36
2023/06/06 09:48:55;;;;;;;11.67;3.83;;;;;;;21.58;100.00;101724.41;7400323;19;20476;-36
2023/06/06 09:51:23;;;;;;;67.60;33.67;;;;;;;21.59;100.00;101706.06;7420784;19;20406;-35
2023/06/06 09:53:54;;;;;;;12.60;5.83;;;;;;;21.45;100.00;101703.28;7396694;19;20662;-35
2023/06/06 09:56:24;;;;;;;13.38;5.18;;;;;;;21.56;100.00;101711.31;7269418;19;2962457;-36
2023/06/06 09:58:57;;;;;;;127.70;66.30;;;;;;;21.69;100.00;101707.09;7403313;19;20665;-35
2023/06/06 10:01:34;;;;;;;9.53;5.33;;;;;;;21.75;100.00;101719.41;7425926;19;20414;-34
2023/06/06 10:04:05;;;;;;;14.20;4.63;;;;;;;21.86;100.00;101722.13;7406624;19;20431;-34
2023/06/06 10:06:38;;;;;;;49.73;27.67;;;;;;;21.61;100.00;101719.22;7404322;19;20467;-35
2023/06/06 10:09:11;;;;;;;15.00;7.03;;;;;;;21.56;100.00;101713.94;7429136;19;21047;-37
2023/06/06 10:11:41;;;;;;;10.53;4.77;;;;;;;21.87;100.00;101709.88;7402416;19;20411;-37
2023/06/06 10:14:11;;;;;;;18.50;10.20;;;;;;;22.18;100.00;101700.53;7426571;19;20478;-36
2023/06/06 10:16:41;;;;;;;8.10;3.73;;;;;;;22.35;100.00;101702.44;7402077;19;20439;-37
2023/06/06 10:19:11;;;;;;;43.23;21.47;;;;;;;22.42;98.82;101706.84;7428541;19;20403;-37
2023/06/06 10:21:41;;;;;;;16.20;7.80;;;;;;;22.34;100.00;101712.03;7402819;19;20415;-37
2023/06/06 10:24:14;;;;;;;145.17;74.93;;;;;;;22.61;100.00;101714.91;7429039;19;20399;-37
2023/06/06 10:26:48;;;;;;;24.17;13.07;;;;;;;22.56;99.73;101711.38;7402329;19;20446;-36
2023/06/06 10:29:23;;;;;;;20.40;9.00;;;;;;;22.67;99.96;101709.69;7426933;19;20406;-36
2023/06/06 10:31:56;;;;;;;11.47;6.17;;;;;;;22.86;100.00;101712.44;7403279;19;20421;-36
2023/06/06 10:34:28;;;;;;;14.70;6.20;;;;;;;22.91;98.55;101708.03;7428099;19;20395;-36
2023/06/06 10:37:00;;;;;;;95.30;50.10;;;;;;;23.04;99.61;101709.00;7399884;19;20477;-37
2023/06/06 10:39:33;;;;;;;56.23;30.83;;;;;;;22.64;97.77;101704.41;7422300;19;20393;-37
2023/06/06 10:42:09;;;;;;;17.93;7.83;;;;;;;22.84;98.83;101706.25;7398563;19;20412;-36
2023/06/06 10:44:56;;;;;;;17.53;8.23;;;;;;;22.81;98.16;101695.75;7423038;19;20441;-36
2023/06/06 10:47:32;;;;;;;13.40;7.07;;;;;;;23.04;97.93;101701.09;7399087;19;20414;-36
2023/06/06 10:50:27;;;;;;;87.67;46.83;;;;;;;23.16;98.10;101697.63;7398147;19;20384;-37
2023/06/06 10:52:59;;;;;;;58.37;32.23;;;;;;;23.24;98.22;101693.31;7371872;19;20391;-36
2023/06/06 10:55:46;;;;;;;38.30;19.70;;;;;;;23.28;97.08;101692.44;7395374;19;20438;-36
2023/06/06 10:58:29;;;;;;;20.77;10.93;;;;;;;23.27;96.52;101685.41;7368580;19;20467;-37
2023/06/06 11:01:03;;;;;;;11.60;3.70;;;;;;;23.39;95.71;101683.72;7393756;19;20410;-37
2023/06/06 11:03:38;;;;;;;85.53;48.60;;;;;;;23.56;96.11;101682.03;7369553;19;20442;-36
2023/06/06 11:06:14;;;;;;;10.60;5.00;;;;;;;23.49;95.66;101685.53;7392735;19;20935;-36
2023/06/06 11:08:47;;;;;;;36.93;20.80;;;;;;;23.64;97.23;101695.19;7369491;19;20524;-36
2023/06/06 11:11:25;;;;;;;40.03;23.60;;;;;;;23.55;95.26;101679.38;7393049;19;20398;-36
2023/06/06 11:13:56;;;;;;;33.93;17.80;;;;;;;23.58;93.96;101676.78;7368679;19;20423;-37
2023/06/06 11:16:35;;;;;;;22.97;9.53;;;;;;;23.60;94.29;101678.50;7392047;19;20463;-36
2023/06/06 11:19:06;;;;;;;38.73;22.23;;;;;;;23.65;92.45;101664.47;7370184;19;20453;-36
2023/06/06 11:21:37;;;;;;;17.53;8.20;;;;;;;23.98;95.44;101678.53;7367648;19;20897;-35
2023/06/06 11:24:08;;;;;;;9.80;4.77;;;;;;;23.87;93.06;101670.63;7391073;19;20421;-36
2023/06/06 11:26:42;;;;;;;26.57;14.67;;;;;;;23.79;91.07;101657.44;7373822;19;20435;-36
2023/06/06 11:29:13;;;;;;;14.50;8.60;;;;;;;23.80;92.06;101667.13;7390961;19;20383;-36
2023/06/06 11:31:43;;;;;;;87.27;49.00;;;;;;;23.98;93.62;101662.72;7371687;19;20871;-36
2023/06/06 11:34:14;;;;;;;11.07;5.93;;;;;;;23.86;92.32;101661.88;7393756;19;20388;-37